Time;durP1;ratioP1;P1;durP2;ratioP2;P2;SDS_P1;SDS_P2;PMS_P1;PMS_P2;Temp;Humidity;BMP_temperature;BMP_pressure;BME280_temperature;BME280_humidity;BME280_pressure;Samples;Min_cycle;Max_cycle;Signal;HPM_P1;HPM_P2
2022/12/04 00:00:51;;;;;;;168.88;121.93;;;;;;;;;;4993039;28;20541;-74
2022/12/04 00:03:17;;;;;;;167.00;117.00;;;;;;;;;;4993044;28;20037;-73
2022/12/04 00:05:43;;;;;;;175.05;118.68;;;;;;;;;;4992731;28;20081;-73
2022/12/04 00:08:09;;;;;;;167.32;115.47;;;;;;;;;;4992919;28;20035;-73
2022/12/04 00:10:35;;;;;;;158.80;108.43;;;;;;;;;;4992837;28;20026;-73
2022/12/04 00:13:01;;;;;;;170.65;115.18;;;;;;;;;;4992977;28;20015;-73
2022/12/04 00:15:27;;;;;;;171.70;111.75;;;;;;;;;;4993021;28;20089;-73
2022/12/04 00:17:53;;;;;;;178.98;118.18;;;;;;;;;;4992962;28;20019;-74
2022/12/04 00:20:19;;;;;;;168.25;114.00;;;;;;;;;;4993028;28;20035;-73
2022/12/04 00:22:45;;;;;;;172.65;114.03;;;;;;;;;;4992762;28;20073;-73
2022/12/04 00:25:11;;;;;;;153.50;107.05;;;;;;;;;;4972409;28;20031;-73
2022/12/04 00:27:37;;;;;;;154.40;102.80;;;;;;;;;;4982693;28;20034;-73
2022/12/04 00:30:04;;;;;;;160.80;105.43;;;;;;;;;;4992683;28;20104;-73
2022/12/04 00:32:30;;;;;;;155.57;105.53;;;;;;;;;;4993139;28;20026;-73
2022/12/04 00:34:56;;;;;;;172.65;115.00;;;;;;;;;;4993205;28;20109;-72
2022/12/04 00:37:22;;;;;;;166.73;113.57;;;;;;;;;;4992897;28;20408;-72
2022/12/04 00:39:48;;;;;;;175.85;116.47;;;;;;;;;;4992587;28;20030;-72
2022/12/04 00:42:14;;;;;;;167.82;115.55;;;;;;;;;;4971929;28;20027;-74
2022/12/04 00:44:40;;;;;;;167.80;113.72;;;;;;;;;;4985701;28;20109;-72
2022/12/04 00:47:06;;;;;;;178.02;117.72;;;;;;;;;;4975570;28;20062;-72
2022/12/04 00:49:32;;;;;;;169.27;113.45;;;;;;;;;;4986015;28;20026;-74
2022/12/04 00:51:58;;;;;;;165.15;110.38;;;;;;;;;;4996003;28;20440;-72
2022/12/04 00:54:25;;;;;;;185.40;120.70;;;;;;;;;;4974885;28;20078;-73
2022/12/04 00:56:51;;;;;;;175.60;117.78;;;;;;;;;;4989923;28;20053;-72
2022/12/04 00:59:17;;;;;;;176.20;117.57;;;;;;;;;;4995662;28;20046;-73
2022/12/04 01:01:43;;;;;;;183.40;123.43;;;;;;;;;;4997312;28;20109;-74
2022/12/04 01:04:09;;;;;;;183.40;122.13;;;;;;;;;;4996038;28;20050;-75
2022/12/04 01:06:35;;;;;;;167.25;115.53;;;;;;;;;;4996447;28;20022;-75
2022/12/04 01:09:04;;;;;;;167.10;113.65;;;;;;;;;;4977205;28;20026;-75
2022/12/04 01:11:30;;;;;;;197.98;132.93;;;;;;;;;;4977833;28;20085;-73
2022/12/04 01:13:56;;;;;;;159.32;109.25;;;;;;;;;;4995680;28;20026;-74
2022/12/04 01:16:24;;;;;;;161.52;109.18;;;;;;;;;;4975239;28;20449;-74
2022/12/04 01:18:50;;;;;;;161.48;108.95;;;;;;;;;;4988951;28;20034;-74
2022/12/04 01:21:17;;;;;;;191.48;120.10;;;;;;;;;;4995929;28;20070;-73
2022/12/04 01:23:43;;;;;;;176.35;116.47;;;;;;;;;;4994383;28;20028;-74
2022/12/04 01:26:10;;;;;;;167.57;109.40;;;;;;;;;;4975946;28;20130;-75
2022/12/04 01:28:36;;;;;;;155.63;100.57;;;;;;;;;;4994211;28;20026;-73
2022/12/04 01:31:04;;;;;;;155.82;100.13;;;;;;;;;;4978349;28;20465;-73
2022/12/04 01:33:31;;;;;;;145.57;98.03;;;;;;;;;;4977616;28;20038;-73
2022/12/04 01:35:58;;;;;;;144.65;98.30;;;;;;;;;;4974803;28;20397;-73
2022/12/04 01:38:25;;;;;;;146.77;98.60;;;;;;;;;;4989603;28;20476;-74
2022/12/04 01:40:51;;;;;;;128.95;88.60;;;;;;;;;;4995439;28;20062;-74
2022/12/04 01:43:17;;;;;;;128.73;90.90;;;;;;;;;;4995454;28;20456;-74
2022/12/04 01:45:52;;;;;;;137.13;93.97;;;;;;;;;;4995128;28;20022;-74
2022/12/04 01:48:29;;;;;;;152.52;98.28;;;;;;;;;;4995148;28;20026;-74
2022/12/04 01:51:00;;;;;;;122.32;84.60;;;;;;;;;;4964391;28;20393;-74
2022/12/04 01:53:26;;;;;;;156.98;102.55;;;;;;;;;;4995410;28;20023;-74
2022/12/04 01:55:52;;;;;;;175.15;108.53;;;;;;;;;;4993824;28;20392;-73
2022/12/04 01:58:22;;;;;;;130.20;86.25;;;;;;;;;;4995237;28;20027;-74
2022/12/04 02:00:52;;;;;;;280.40;143.65;;;;;;;;;;4994825;28;20057;-74
2022/12/04 02:03:18;;;;;;;187.18;103.93;;;;;;;;;;4974362;28;20486;-74
2022/12/04 02:05:44;;;;;;;189.07;108.97;;;;;;;;;;4986545;28;20054;-74
2022/12/04 02:08:10;;;;;;;158.68;95.65;;;;;;;;;;4994988;28;20022;-74
2022/12/04 02:10:48;;;;;;;199.88;119.88;;;;;;;;;;4994608;28;20033;-74
2022/12/04 02:13:26;;;;;;;153.95;99.65;;;;;;;;;;4995178;28;20473;-74
2022/12/04 02:16:10;;;;;;;131.30;92.18;;;;;;;;;;4993786;28;20026;-75
2022/12/04 02:18:51;;;;;;;126.28;86.60;;;;;;;;;;4992878;28;20023;-75
2022/12/04 02:21:26;;;;;;;141.48;94.10;;;;;;;;;;4994032;28;20177;-74
2022/12/04 02:23:52;;;;;;;132.32;88.35;;;;;;;;;;4976744;28;20031;-74
2022/12/04 02:26:31;;;;;;;154.02;99.82;;;;;;;;;;4994489;28;20018;-74
2022/12/04 02:29:15;;;;;;;148.05;96.43;;;;;;;;;;4994218;28;20026;-74
2022/12/04 02:31:47;;;;;;;147.52;95.95;;;;;;;;;;4994127;28;20389;-73
2022/12/04 02:34:50;;;;;;;128.10;85.82;;;;;;;;;;4994963;28;20050;-73
2022/12/04 02:37:23;;;;;;;105.85;67.82;;;;;;;;;;4934652;29;20035;-75
2022/12/04 02:39:49;;;;;;;93.78;58.15;;;;;;;;;;4934381;29;20057;-75
2022/12/04 02:42:22;;;;;;;56.55;38.30;;;;;;;;;;4934268;29;20497;-75
2022/12/04 02:44:55;;;;;;;90.75;55.83;;;;;;;;;;4934240;29;20039;-75
2022/12/04 02:47:22;;;;;;;88.15;53.08;;;;;;;;;;4934305;29;20188;-74
2022/12/04 02:49:59;;;;;;;45.85;30.02;;;;;;;;;;4933900;29;20034;-74
2022/12/04 02:52:33;;;;;;;53.30;34.58;;;;;;;;;;4934135;29;20570;-73
2022/12/04 02:55:02;;;;;;;46.97;31.15;;;;;;;;;;4933906;29;20034;-74
2022/12/04 02:57:31;;;;;;;39.33;27.55;;;;;;;;;;4934062;29;20028;-74
2022/12/04 02:59:58;;;;;;;37.80;26.08;;;;;;;;;;4934042;29;20103;-74
2022/12/04 03:02:34;;;;;;;35.88;24.60;;;;;;;;;;4934189;29;20031;-74
2022/12/04 03:05:02;;;;;;;34.80;23.05;;;;;;;;;;4934063;29;20138;-74
2022/12/04 03:07:49;;;;;;;42.03;25.48;;;;;;;;;;4933622;29;20421;-74
2022/12/04 03:10:17;;;;;;;44.22;29.23;;;;;;;;;;4939807;28;20032;-74
2022/12/04 03:12:43;;;;;;;53.97;33.63;;;;;;;;;;4993988;28;20026;-74
2022/12/04 03:15:22;;;;;;;47.90;31.92;;;;;;;;;;4994027;28;20031;-74
2022/12/04 03:18:14;;;;;;;55.60;36.95;;;;;;;;;;4993712;28;20026;-74
2022/12/04 03:20:42;;;;;;;63.05;41.15;;;;;;;;;;4991085;28;20077;-74
2022/12/04 03:23:28;;;;;;;66.22;43.63;;;;;;;;;;4993402;28;20022;-74
2022/12/04 03:25:54;;;;;;;67.45;46.00;;;;;;;;;;4993249;28;20018;-74
2022/12/04 03:28:25;;;;;;;67.00;43.22;;;;;;;;;;4993799;28;20024;-75
2022/12/04 03:30:55;;;;;;;77.70;51.90;;;;;;;;;;4993845;28;20507;-75
2022/12/04 03:33:24;;;;;;;65.45;44.17;;;;;;;;;;4993833;28;20066;-75
2022/12/04 03:35:54;;;;;;;62.95;42.63;;;;;;;;;;4993330;28;20473;-75
2022/12/04 03:38:24;;;;;;;59.50;42.70;;;;;;;;;;4993785;28;20057;-75
2022/12/04 03:41:01;;;;;;;69.70;47.22;;;;;;;;;;4993686;28;20033;-75
2022/12/04 03:43:45;;;;;;;71.43;47.47;;;;;;;;;;4993826;28;20065;-75
2022/12/04 03:46:14;;;;;;;68.80;45.17;;;;;;;;;;4993957;28;20424;-74
2022/12/04 03:48:42;;;;;;;69.18;45.00;;;;;;;;;;4993469;28;20109;-75
2022/12/04 03:51:19;;;;;;;67.53;44.45;;;;;;;;;;4993592;28;20014;-75
2022/12/04 03:53:49;;;;;;;88.63;55.53;;;;;;;;;;4991233;28;20029;-75
2022/12/04 03:56:35;;;;;;;87.13;53.77;;;;;;;;;;4982616;28;20018;-75
2022/12/04 03:59:30;;;;;;;67.13;43.00;;;;;;;;;;4993483;28;20053;-75
2022/12/04 04:01:59;;;;;;;58.28;39.08;;;;;;;;;;4980359;28;20042;-74
2022/12/04 04:04:33;;;;;;;175.75;98.40;;;;;;;;;;4993122;28;20050;-74
2022/12/04 04:07:19;;;;;;;206.13;115.20;;;;;;;;;;4993605;28;20377;-74
2022/12/04 04:09:48;;;;;;;125.63;73.28;;;;;;;;;;4972531;28;20041;-74
2022/12/04 04:12:20;;;;;;;113.03;67.88;;;;;;;;;;4987923;28;20026;-74
2022/12/04 04:26:00;;;;;;;60.50;35.95;;;;;;;;;;4996664;28;20821;-75
2022/12/04 04:28:29;;;;;;;67.05;39.17;;;;;;;;;;4996943;28;20504;-75
2022/12/04 04:30:58;;;;;;;61.67;40.42;;;;;;;;;;4997095;28;20097;-74
2022/12/04 04:33:25;;;;;;;66.25;40.47;;;;;;;;;;4996926;28;20157;-74
2022/12/04 04:35:51;;;;;;;72.93;45.38;;;;;;;;;;4975860;28;20015;-74
2022/12/04 04:38:22;;;;;;;67.25;45.60;;;;;;;;;;4991511;28;20381;-74
2022/12/04 04:40:51;;;;;;;68.10;44.72;;;;;;;;;;4996826;28;20093;-73
2022/12/04 04:43:20;;;;;;;68.93;46.05;;;;;;;;;;4997015;28;20567;-74
2022/12/04 04:45:55;;;;;;;77.93;53.17;;;;;;;;;;4996357;28;20026;-74
2022/12/04 04:48:23;;;;;;;74.47;48.83;;;;;;;;;;4997292;28;20034;-73
2022/12/04 04:50:49;;;;;;;67.43;45.55;;;;;;;;;;4996067;28;20057;-74
2022/12/04 04:53:18;;;;;;;70.68;48.30;;;;;;;;;;4996118;28;20504;-73
2022/12/04 04:55:45;;;;;;;73.53;46.38;;;;;;;;;;4994659;28;20029;-75
2022/12/04 04:58:12;;;;;;;64.45;43.38;;;;;;;;;;4996479;28;20030;-75
2022/12/04 05:00:39;;;;;;;58.97;40.75;;;;;;;;;;4996354;28;20038;-74
2022/12/04 05:03:05;;;;;;;67.93;47.05;;;;;;;;;;4996448;28;20057;-75
2022/12/04 05:05:32;;;;;;;62.92;43.70;;;;;;;;;;4996544;28;20550;-75
2022/12/04 05:07:58;;;;;;;57.65;40.83;;;;;;;;;;4975412;28;20073;-74
2022/12/04 05:10:24;;;;;;;63.50;45.28;;;;;;;;;;4987378;28;20101;-74
2022/12/04 05:12:50;;;;;;;57.08;43.00;;;;;;;;;;4977393;28;20029;-73
2022/12/04 05:15:16;;;;;;;63.60;48.03;;;;;;;;;;4993949;28;20447;-73
2022/12/04 05:17:42;;;;;;;71.10;50.35;;;;;;;;;;4995848;28;20023;-74
2022/12/04 05:20:09;;;;;;;51.90;33.63;;;;;;;;;;4974162;28;20039;-74
2022/12/04 05:22:36;;;;;;;39.17;26.58;;;;;;;;;;4996155;28;20119;-75
2022/12/04 05:25:02;;;;;;;39.05;29.50;;;;;;;;;;4974854;28;20030;-75
2022/12/04 05:27:29;;;;;;;40.78;28.85;;;;;;;;;;4981493;28;20038;-74
2022/12/04 05:29:56;;;;;;;44.85;31.75;;;;;;;;;;4990052;28;20575;-75
2022/12/04 05:32:23;;;;;;;50.75;33.67;;;;;;;;;;4994544;28;20066;-74
2022/12/04 05:34:50;;;;;;;50.17;33.53;;;;;;;;;;4995926;28;20030;-75
2022/12/04 05:37:16;;;;;;;46.67;34.25;;;;;;;;;;4995241;28;20026;-74
2022/12/04 05:39:42;;;;;;;55.05;36.38;;;;;;;;;;4995387;28;20039;-75
2022/12/04 05:42:08;;;;;;;51.30;37.30;;;;;;;;;;4995543;28;20428;-76
2022/12/04 05:44:34;;;;;;;61.90;40.60;;;;;;;;;;4974861;28;20122;-76
2022/12/04 05:47:01;;;;;;;58.08;37.33;;;;;;;;;;4990993;28;20481;-75
2022/12/04 05:49:30;;;;;;;50.17;35.88;;;;;;;;;;4994836;28;20026;-75
2022/12/04 05:51:57;;;;;;;55.13;38.10;;;;;;;;;;4988284;28;20032;-74
2022/12/04 05:54:23;;;;;;;43.67;28.83;;;;;;;;;;4995169;28;20018;-74
2022/12/04 05:56:49;;;;;;;32.80;23.33;;;;;;;;;;4995330;28;20018;-74
2022/12/04 05:59:16;;;;;;;29.30;20.75;;;;;;;;;;4974830;28;20473;-75
2022/12/04 06:01:42;;;;;;;46.25;31.45;;;;;;;;;;4993029;28;20570;-76
2022/12/04 06:04:08;;;;;;;52.55;37.55;;;;;;;;;;5032137;22;20435;-75
2022/12/04 06:06:34;;;;;;;58.97;39.15;;;;;;;;;;5034623;28;20021;-74
2022/12/04 06:09:01;;;;;;;58.63;42.78;;;;;;;;;;5034619;28;20018;-74
2022/12/04 06:11:28;;;;;;;62.22;39.85;;;;;;;;;;5034243;28;20032;-74
2022/12/04 06:13:55;;;;;;;48.65;34.03;;;;;;;;;;5033212;28;20032;-74
2022/12/04 06:16:26;;;;;;;57.38;37.88;;;;;;;;;;5033568;28;20014;-74
2022/12/04 06:18:53;;;;;;;52.13;37.47;;;;;;;;;;5024877;28;20104;-74
2022/12/04 06:21:19;;;;;;;55.78;39.08;;;;;;;;;;5032853;28;20385;-75
2022/12/04 06:23:46;;;;;;;60.40;42.92;;;;;;;;;;5033476;28;20020;-74
2022/12/04 06:26:12;;;;;;;59.58;42.97;;;;;;;;;;5018571;28;20431;-73
2022/12/04 06:28:38;;;;;;;60.92;42.97;;;;;;;;;;5033826;28;20022;-75
2022/12/04 06:31:09;;;;;;;64.28;45.97;;;;;;;;;;5004998;28;20090;-75
2022/12/04 06:33:35;;;;;;;94.07;60.35;;;;;;;;;;5026802;28;20117;-75
2022/12/04 06:36:06;;;;;;;115.28;75.45;;;;;;;;;;5023963;28;20480;-74
2022/12/04 06:38:32;;;;;;;97.97;63.33;;;;;;;;;;5032655;28;20021;-74
2022/12/04 06:40:58;;;;;;;81.72;56.58;;;;;;;;;;5022429;28;20033;-74
2022/12/04 06:43:24;;;;;;;84.32;56.20;;;;;;;;;;5005280;28;20033;-75
2022/12/04 06:46:04;;;;;;;88.57;56.58;;;;;;;;;;5027856;28;20454;-75
2022/12/04 06:51:36;;;;;;;84.70;59.65;;;;;;;;;;4589606;26;20039;-71
2022/12/04 06:54:03;;;;;;;85.30;59.88;;;;;;;;;;4954760;28;20027;-72
2022/12/04 06:56:31;;;;;;;149.15;98.97;;;;;;;;;;4955739;28;20481;-72
2022/12/04 06:58:58;;;;;;;179.65;122.38;;;;;;;;;;4962508;23;20047;-72
2022/12/04 07:01:25;;;;;;;106.68;69.80;;;;;;;;;;4967247;28;20032;-71
2022/12/04 07:03:52;;;;;;;93.38;58.65;;;;;;;;;;4947344;28;20023;-71
2022/12/04 07:06:22;;;;;;;99.65;69.75;;;;;;;;;;4957381;28;20019;-71
2022/12/04 07:08:50;;;;;;;97.65;65.38;;;;;;;;;;4960416;28;20441;-72
2022/12/04 07:11:16;;;;;;;93.07;66.90;;;;;;;;;;4971740;28;20513;-72
2022/12/04 07:13:43;;;;;;;89.22;60.75;;;;;;;;;;4966028;28;20031;-72
2022/12/04 07:16:12;;;;;;;84.05;50.70;;;;;;;;;;4954226;28;20042;-72
2022/12/04 07:18:38;;;;;;;70.25;50.72;;;;;;;;;;4953949;28;20026;-72
2022/12/04 07:21:24;;;;;;;72.20;49.25;;;;;;;;;;4954101;28;20020;-72
2022/12/04 07:23:51;;;;;;;71.85;52.75;;;;;;;;;;4961850;28;20389;-72
2022/12/04 07:26:18;;;;;;;88.43;60.38;;;;;;;;;;4960580;28;20027;-72
2022/12/04 07:28:44;;;;;;;49.80;36.15;;;;;;;;;;4954061;28;20151;-72
2022/12/04 07:31:14;;;;;;;47.80;31.20;;;;;;;;;;4954906;28;20123;-72
2022/12/04 07:33:41;;;;;;;38.70;27.73;;;;;;;;;;4968408;28;20434;-71
2022/12/04 07:36:08;;;;;;;43.60;28.63;;;;;;;;;;4955286;28;20030;-72
2022/12/04 07:38:35;;;;;;;45.80;31.00;;;;;;;;;;4953115;28;20035;-72
2022/12/04 07:41:02;;;;;;;59.25;37.38;;;;;;;;;;4955122;28;20074;-73
2022/12/04 07:43:29;;;;;;;49.65;35.40;;;;;;;;;;4954351;28;20035;-72
2022/12/04 07:45:56;;;;;;;59.53;41.90;;;;;;;;;;4954825;28;20066;-72
2022/12/04 07:48:22;;;;;;;56.83;37.53;;;;;;;;;;4954787;28;20509;-71
2022/12/04 07:50:48;;;;;;;57.22;37.35;;;;;;;;;;4953505;28;20039;-72
2022/12/04 07:53:14;;;;;;;51.65;35.60;;;;;;;;;;4954759;28;20020;-72
2022/12/04 07:55:40;;;;;;;60.10;36.78;;;;;;;;;;4957874;28;20024;-72
2022/12/04 07:58:06;;;;;;;69.10;42.35;;;;;;;;;;4947187;28;20023;-71
2022/12/04 08:00:33;;;;;;;58.45;36.05;;;;;;;;;;4958842;28;20024;-72
2022/12/04 08:02:59;;;;;;;42.97;31.60;;;;;;;;;;4958552;28;20016;-73
2022/12/04 08:05:25;;;;;;;51.05;35.13;;;;;;;;;;4958878;28;20059;-72
2022/12/04 08:07:51;;;;;;;67.22;40.90;;;;;;;;;;4958496;28;20031;-72
2022/12/04 08:10:17;;;;;;;69.05;40.25;;;;;;;;;;4956674;28;20046;-72
2022/12/04 08:12:43;;;;;;;71.65;46.15;;;;;;;;;;4958385;28;20031;-70
2022/12/04 08:15:09;;;;;;;125.80;88.45;;;;;;;;;;4958229;28;20518;-70
2022/12/04 08:17:38;;;;;;;101.15;67.15;;;;;;;;;;4958253;28;20039;-70
2022/12/04 08:20:04;;;;;;;69.15;47.50;;;;;;;;;;4958183;28;20377;-72
2022/12/04 08:22:30;;;;;;;61.03;38.53;;;;;;;;;;4958164;28;20090;-71
2022/12/04 08:24:57;;;;;;;53.95;38.05;;;;;;;;;;4961710;28;20023;-73
2022/12/04 08:27:23;;;;;;;140.57;90.95;;;;;;;;;;4958408;28;20488;-73
2022/12/04 08:29:49;;;;;;;68.75;43.47;;;;;;;;;;4953804;28;20047;-73
2022/12/04 08:32:15;;;;;;;58.05;41.00;;;;;;;;;;4967030;28;20106;-73
2022/12/04 08:34:41;;;;;;;74.60;51.17;;;;;;;;;;4959367;28;20026;-72
2022/12/04 08:37:07;;;;;;;52.92;37.90;;;;;;;;;;4958228;28;20031;-70
2022/12/04 08:39:33;;;;;;;63.28;43.47;;;;;;;;;;4959144;28;20035;-72
2022/12/04 08:41:59;;;;;;;90.07;57.65;;;;;;;;;;4958863;28;20078;-72
2022/12/04 08:44:25;;;;;;;224.00;202.73;;;;;;;;;;4958227;29;20394;-71
2022/12/04 08:46:51;;;;;;;90.97;80.88;;;;;;;;;;4958386;29;20027;-72
2022/12/04 08:49:17;;;;;;;114.40;77.18;;;;;;;;;;4958238;28;20477;-71
2022/12/04 08:51:43;;;;;;;41.60;30.52;;;;;;;;;;4957873;28;20066;-74
2022/12/04 08:54:11;;;;;;;44.45;30.45;;;;;;;;;;4951783;28;20200;-74
2022/12/04 08:56:37;;;;;;;48.05;34.10;;;;;;;;;;4955483;29;20359;-72
2022/12/04 08:59:04;;;;;;;51.20;36.70;;;;;;;;;;4971412;28;20051;-72
2022/12/04 09:01:30;;;;;;;61.78;42.78;;;;;;;;;;4957126;29;20486;-72
2022/12/04 09:03:56;;;;;;;62.22;40.75;;;;;;;;;;4956844;29;20025;-72
2022/12/04 09:06:22;;;;;;;73.45;41.72;;;;;;;;;;4956559;28;20023;-71
2022/12/04 09:08:52;;;;;;;62.22;38.28;;;;;;;;;;4956766;29;20023;-71
2022/12/04 09:11:20;;;;;;;35.95;24.55;;;;;;;;;;4956779;28;20475;-71
2022/12/04 09:13:46;;;;;;;50.38;36.03;;;;;;;;;;4957164;28;20027;-70
2022/12/04 09:16:16;;;;;;;47.03;35.85;;;;;;;;;;4957186;28;20031;-71
2022/12/04 09:18:42;;;;;;;64.90;41.45;;;;;;;;;;4955391;28;20367;-71
2022/12/04 09:21:09;;;;;;;82.72;58.20;;;;;;;;;;4957165;28;20035;-72
2022/12/04 09:23:35;;;;;;;38.90;28.83;;;;;;;;;;4957187;28;20031;-72
2022/12/04 09:26:02;;;;;;;50.72;32.65;;;;;;;;;;4957166;28;20444;-72
2022/12/04 09:28:28;;;;;;;59.05;39.63;;;;;;;;;;4957606;28;20051;-73
2022/12/04 09:31:01;;;;;;;120.90;79.07;;;;;;;;;;4957260;28;20032;-72
2022/12/04 09:33:29;;;;;;;58.20;41.40;;;;;;;;;;4956733;28;20367;-73
2022/12/04 09:35:55;;;;;;;47.20;34.50;;;;;;;;;;4955968;28;20039;-74
2022/12/04 09:38:21;;;;;;;41.35;31.50;;;;;;;;;;4955191;29;20114;-74
2022/12/04 09:40:54;;;;;;;57.17;41.80;;;;;;;;;;4956541;28;20500;-74
2022/12/04 09:43:30;;;;;;;55.30;40.45;;;;;;;;;;4956560;28;20023;-73
2022/12/04 09:46:00;;;;;;;59.67;41.88;;;;;;;;;;4956501;28;20035;-73
2022/12/04 09:48:32;;;;;;;49.22;39.58;;;;;;;;;;4956503;28;20035;-72
2022/12/04 09:50:58;;;;;;;62.17;45.38;;;;;;;;;;4955903;28;20039;-71
2022/12/04 09:53:29;;;;;;;61.22;47.55;;;;;;;;;;4956623;28;20023;-70
2022/12/04 09:56:01;;;;;;;113.72;75.78;;;;;;;;;;4956318;28;20114;-70
2022/12/04 09:58:38;;;;;;;75.18;51.05;;;;;;;;;;4955586;28;20055;-73
2022/12/04 10:01:05;;;;;;;207.07;120.30;;;;;;;;;;4956498;28;20035;-73
2022/12/04 10:03:31;;;;;;;206.30;125.63;;;;;;;;;;4956567;28;20031;-73
2022/12/04 10:06:26;;;;;;;203.40;124.85;;;;;;;;;;4956408;28;20069;-73
2022/12/04 10:09:01;;;;;;;88.95;62.30;;;;;;;;;;4916148;29;20067;-73
2022/12/04 10:11:36;;;;;;;107.53;70.03;;;;;;;;;;4915826;29;20044;-73
2022/12/04 10:14:07;;;;;;;49.30;37.50;;;;;;;;;;4915982;29;20040;-73
2022/12/04 10:16:45;;;;;;;67.95;45.33;;;;;;;;;;4915587;29;20024;-73
2022/12/04 10:19:14;;;;;;;274.80;154.25;;;;;;;;;;4915848;29;20040;-72
2022/12/04 10:21:43;;;;;;;283.02;158.02;;;;;;;;;;4915988;29;20028;-72
2022/12/04 10:24:11;;;;;;;184.68;108.90;;;;;;;;;;4916078;29;20028;-72
2022/12/04 10:26:41;;;;;;;73.50;48.10;;;;;;;;;;4915827;29;20036;-73
2022/12/04 10:29:08;;;;;;;38.65;24.42;;;;;;;;;;4912528;29;20032;-71
2022/12/04 10:31:35;;;;;;;32.25;19.55;;;;;;;;;;4914577;29;20142;-71
2022/12/04 10:34:14;;;;;;;26.58;20.23;;;;;;;;;;4915429;29;20028;-71
2022/12/04 10:36:41;;;;;;;33.00;19.08;;;;;;;;;;4915331;29;20084;-71
2022/12/04 10:39:14;;;;;;;20.08;14.88;;;;;;;;;;4915429;29;20039;-68
2022/12/04 10:41:42;;;;;;;20.17;14.18;;;;;;;;;;4915463;29;20083;-69
2022/12/04 10:44:13;;;;;;;34.70;21.35;;;;;;;;;;4917198;29;20087;-70
2022/12/04 10:46:40;;;;;;;25.33;18.80;;;;;;;;;;4950595;28;20062;-71
2022/12/04 10:49:26;;;;;;;24.40;18.27;;;;;;;;;;4951375;29;20027;-71
2022/12/04 10:51:53;;;;;;;25.38;17.77;;;;;;;;;;4947493;29;20509;-70
2022/12/04 10:54:39;;;;;;;28.40;18.00;;;;;;;;;;4966567;28;20039;-68
2022/12/04 10:57:09;;;;;;;188.32;105.10;;;;;;;;;;4950478;28;20024;-73
2022/12/04 10:59:38;;;;;;;42.92;29.75;;;;;;;;;;4938474;28;20062;-72
2022/12/04 11:02:12;;;;;;;28.25;20.85;;;;;;;;;;4951074;29;20171;-73
2022/12/04 11:04:40;;;;;;;34.63;22.77;;;;;;;;;;4954768;28;20023;-72
2022/12/04 11:07:08;;;;;;;40.47;25.02;;;;;;;;;;4955396;28;20081;-71
2022/12/04 11:09:34;;;;;;;37.25;23.88;;;;;;;;;;4955096;28;20055;-72
2022/12/04 11:12:16;;;;;;;44.67;23.52;;;;;;;;;;4955215;28;20023;-72
2022/12/04 11:14:42;;;;;;;27.63;21.10;;;;;;;;;;4955165;28;20450;-72
2022/12/04 11:17:15;;;;;;;39.45;28.15;;;;;;;;;;4955321;28;20059;-72
2022/12/04 11:19:41;;;;;;;94.82;70.90;;;;;;;;;;4954851;28;20035;-71
2022/12/04 11:22:14;;;;;;;68.35;51.05;;;;;;;;;;4955149;28;20033;-72
2022/12/04 11:24:41;;;;;;;50.00;38.42;;;;;;;;;;4955573;28;20027;-74
2022/12/04 11:27:15;;;;;;;48.15;35.05;;;;;;;;;;4955051;28;20023;-72
2022/12/04 11:29:43;;;;;;;43.78;30.70;;;;;;;;;;4955043;28;20031;-72
2022/12/04 11:32:38;;;;;;;51.42;36.67;;;;;;;;;;4954727;28;20053;-72
2022/12/04 11:35:14;;;;;;;53.85;37.35;;;;;;;;;;4914397;29;20499;-72
2022/12/04 11:37:40;;;;;;;51.85;34.97;;;;;;;;;;4914749;29;20088;-72
2022/12/04 11:40:15;;;;;;;44.65;32.53;;;;;;;;;;4914685;29;20084;-73
2022/12/04 11:42:41;;;;;;;39.03;29.17;;;;;;;;;;4914931;29;20039;-72
2022/12/04 11:45:21;;;;;;;53.40;33.50;;;;;;;;;;4914752;29;20099;-73
2022/12/04 11:47:57;;;;;;;42.67;28.60;;;;;;;;;;4914644;29;20028;-72
2022/12/04 11:50:25;;;;;;;51.88;34.20;;;;;;;;;;4914238;29;20475;-73
2022/12/04 11:52:51;;;;;;;44.00;33.75;;;;;;;;;;4914629;29;20044;-72
2022/12/04 11:55:24;;;;;;;40.67;30.15;;;;;;;;;;4914617;29;20107;-73
2022/12/04 11:57:50;;;;;;;36.72;30.00;;;;;;;;;;4914581;29;20040;-73
2022/12/04 12:00:20;;;;;;;37.72;30.20;;;;;;;;;;4914205;29;20071;-71
2022/12/04 12:02:52;;;;;;;42.05;33.03;;;;;;;;;;4914176;29;20028;-72
2022/12/04 12:05:23;;;;;;;32.42;22.90;;;;;;;;;;4914566;29;20118;-72
2022/12/04 12:07:49;;;;;;;35.05;26.77;;;;;;;;;;4914310;29;20483;-73
2022/12/04 12:10:24;;;;;;;35.90;25.23;;;;;;;;;;4914895;28;20070;-73
2022/12/04 12:13:04;;;;;;;41.15;31.48;;;;;;;;;;4954836;28;20066;-70
2022/12/04 12:15:30;;;;;;;38.83;31.83;;;;;;;;;;4954695;28;20106;-71
2022/12/04 12:18:11;;;;;;;34.60;25.17;;;;;;;;;;4954730;28;20066;-69
2022/12/04 12:20:56;;;;;;;32.85;26.40;;;;;;;;;;4954860;28;20029;-73
2022/12/04 12:23:22;;;;;;;35.97;27.00;;;;;;;;;;4954764;28;20071;-73
2022/12/04 12:26:01;;;;;;;40.58;31.92;;;;;;;;;;4954895;28;20019;-73
2022/12/04 12:28:45;;;;;;;28.90;23.60;;;;;;;;;;4954443;28;20035;-72
2022/12/04 12:31:30;;;;;;;35.80;24.35;;;;;;;;;;4954905;28;20118;-72
2022/12/04 12:33:58;;;;;;;26.15;19.17;;;;;;;;;;4954308;28;20027;-73
2022/12/04 12:36:25;;;;;;;40.30;27.65;;;;;;;;;;4954180;28;20031;-73
2022/12/04 12:39:00;;;;;;;38.22;27.00;;;;;;;;;;4954635;28;20031;-70
2022/12/04 12:41:26;;;;;;;39.08;26.60;;;;;;;;;;4956852;28;20030;-73
2022/12/04 12:44:14;;;;;;;32.53;25.77;;;;;;;;;;4958053;28;20027;-73
2022/12/04 12:46:47;;;;;;;32.70;22.80;;;;;;;;;;4957592;28;20098;-72
2022/12/04 12:49:16;;;;;;;43.40;30.02;;;;;;;;;;4957807;28;20529;-72
2022/12/04 12:51:58;;;;;;;33.03;23.73;;;;;;;;;;4957722;28;20442;-74
2022/12/04 12:54:43;;;;;;;22.92;17.42;;;;;;;;;;4958095;28;20015;-72
2022/12/04 12:57:16;;;;;;;54.83;36.95;;;;;;;;;;4957468;28;20023;-73
2022/12/04 12:59:47;;;;;;;69.00;47.58;;;;;;;;;;4956715;28;20079;-72
2022/12/04 13:02:22;;;;;;;71.90;51.65;;;;;;;;;;4956592;28;20023;-72
2022/12/04 13:04:50;;;;;;;32.88;22.70;;;;;;;;;;4956284;28;20537;-72
2022/12/04 13:07:34;;;;;;;26.20;16.08;;;;;;;;;;4956470;28;20038;-73
2022/12/04 13:10:04;;;;;;;13.25;11.45;;;;;;;;;;4956119;28;20039;-73
2022/12/04 13:12:35;;;;;;;19.27;14.05;;;;;;;;;;4956348;28;20032;-73
2022/12/04 13:15:01;;;;;;;14.75;12.35;;;;;;;;;;4956288;28;20031;-73
2022/12/04 13:17:31;;;;;;;20.67;14.43;;;;;;;;;;4956046;28;20035;-73
2022/12/04 13:19:58;;;;;;;9.25;7.10;;;;;;;;;;4942682;28;20489;-72
2022/12/04 13:22:43;;;;;;;15.30;12.07;;;;;;;;;;4956045;28;20020;-73
2022/12/04 13:25:12;;;;;;;23.65;16.02;;;;;;;;;;4956341;28;20030;-73
2022/12/04 13:27:46;;;;;;;21.42;13.13;;;;;;;;;;4956199;28;20082;-72
2022/12/04 13:30:20;;;;;;;15.20;12.15;;;;;;;;;;4955794;28;20047;-73
2022/12/04 13:33:05;;;;;;;18.90;14.57;;;;;;;;;;4955794;28;20489;-72
2022/12/04 13:35:31;;;;;;;31.27;19.25;;;;;;;;;;4975162;28;20019;-72
2022/12/04 13:37:57;;;;;;;23.02;15.13;;;;;;;;;;4957913;28;20102;-71
2022/12/04 13:40:27;;;;;;;37.90;20.83;;;;;;;;;;4948465;28;20031;-73
2022/12/04 13:43:04;;;;;;;36.60;22.55;;;;;;;;;;4945616;29;20577;-73
2022/12/04 13:45:33;;;;;;;41.78;26.58;;;;;;;;;;4948128;29;20434;-73
2022/12/04 13:48:00;;;;;;;44.58;27.13;;;;;;;;;;4942660;29;20055;-74
2022/12/04 13:50:33;;;;;;;49.17;30.73;;;;;;;;;;4951314;29;20445;-73
2022/12/04 13:53:00;;;;;;;34.83;24.55;;;;;;;;;;4946833;28;20102;-73
2022/12/04 13:55:32;;;;;;;42.08;27.77;;;;;;;;;;4965523;28;20386;-73
2022/12/04 13:58:00;;;;;;;36.38;25.35;;;;;;;;;;4955470;28;20020;-72
2022/12/04 14:00:27;;;;;;;31.52;22.13;;;;;;;;;;4889686;28;1930576;-71
2022/12/04 14:02:54;;;;;;;42.50;25.55;;;;;;;;;;4953804;28;20027;-71
2022/12/04 14:05:28;;;;;;;43.60;30.52;;;;;;;;;;4949846;29;20034;-73
2022/12/04 14:08:03;;;;;;;51.40;34.53;;;;;;;;;;4955642;29;20027;-73
2022/12/04 14:10:36;;;;;;;76.93;48.60;;;;;;;;;;4955341;28;20031;-74
2022/12/04 14:13:02;;;;;;;96.60;83.68;;;;;;;;;;4955150;29;20533;-72
2022/12/04 14:15:30;;;;;;;57.17;49.92;;;;;;;;;;4955517;29;20023;-70
2022/12/04 14:18:04;;;;;;;117.32;106.00;;;;;;;;;;4955600;29;20027;-71
2022/12/04 14:20:32;;;;;;;70.03;60.95;;;;;;;;;;4965826;28;20121;-71
2022/12/04 14:23:07;;;;;;;78.03;63.30;;;;;;;;;;4959707;28;20020;-70
2022/12/04 14:25:35;;;;;;;65.25;55.35;;;;;;;;;;4955766;28;20028;-69
2022/12/04 14:28:13;;;;;;;44.47;31.98;;;;;;;;;;4954162;28;20031;-70
2022/12/04 14:30:40;;;;;;;39.53;29.05;;;;;;;;;;4955532;28;20441;-70
2022/12/04 14:33:16;;;;;;;54.10;39.17;;;;;;;;;;4955416;28;20020;-70
2022/12/04 14:35:48;;;;;;;50.60;36.80;;;;;;;;;;4955441;28;20106;-70
2022/12/04 14:38:21;;;;;;;43.40;32.63;;;;;;;;;;4955315;28;20497;-70
2022/12/04 14:40:50;;;;;;;44.25;35.45;;;;;;;;;;4955608;28;20114;-70